Garden City, Louisiana
Current Conditions -  °F | °C
As of 9:53 PM on Tuesday 21 Oct 2014 (Local Time) from KARA Reporting Station
Clear Clear  
Wind Chill: 67°   Ceiling: Unl
Heat Index: 67°   Visibility: 10mi
Dew Point: 60°   Wind: 7mph
Humidity: 79%   Direction: 40°NE
Pressure: 30.04"   Gusts: NA
Location:  29.77°N, 91.47°W
Report Text: KARA 220253Z AUTO 04006KT 10SM CLR 19/16 A3004 RMK AO2 SLP172 T01940156 53016
Loading
Personal Weather Stations






























Interactive Weather Map
Tropical Storm Tracking
New forecast layout! Learn more

10-Day Weather Forecast

Advertisements
Track Severe Weather on mobile